ETEB 090056Z AUTO 15005KT 9999 CLR 09/07 A2993 RMK AO2 SLP148 T00850073 $ EDMA 090150Z AUTO 13005KT 9999 NCD 07/04 Q1014 ETIK 090056Z AUTO 00000KT 9999 CLR 09/04 A2993 RMK AO2 SLP136 T00940036 LSZB 090150Z AUTO 11005KT 080V150 CAVOK 06/05 Q1014 LIPB 082050Z VRB03KT CAVOK 15/04 Q1019 RMK MON INVIS EDDW 090150Z 14005KT CAVOK 12/07 Q1006 LFMD 090200Z AUTO 01004KT 330V040 CAVOK 12/10 Q1018 EDLW 090150Z AUTO 17007KT 9999 // NCD 12/07 Q1008 EDDC 090150Z 16009KT CAVOK 12/00 Q1013 EDDL 090150Z 15014KT CAVOK 13/08 Q1007 NOSIG EDDE 090150Z 17007KT CAVOK 10/03 Q1011 LIRQ 090150Z AUTO VRB01KT 9999 NCD 12/10 Q1019 EDDF 090150Z VRB01KT CAVOK 06/04 Q1010 NOSIG EDNY 090150Z AUTO VRB01KT 9999 // NCD 05/04 Q1013 ETHF 090120Z AUTO 20008KT 9999 // ////// 11/03 Q1010 /// LIMJ 090150Z VRB01KT CAVOK 15/10 Q1018 ETIC 090056Z AUTO 00000KT 9999 CLR 03/01 A2994 RMK AO2 SLP146 T00290014 $ LOWG 090150Z AUTO VRB01KT 9999 NCD 05/03 Q1019 EDDH 090150Z 15009KT 9999 BKN040 10/07 Q1007 NOSIG EDDV 090150Z 20006KT 150V230 CAVOK 12/04 Q1008 ETIH 090056Z AUTO 00000KT 9999 CLR 04/01 A2997 RMK AO2 SLP156 T00370009 ETSI 090120Z AUTO 08004KT 9999 // ////// 07/04 Q1014 /// LOWI 090150Z AUTO 21004KT 180V240 9999 NSC 08/03 Q1018 EDHK 090150Z AUTO 20010KT 9999 // FEW051/// SCT058/// OVC085/// 09/07 Q1005 LOWK 090150Z AUTO 29004KT 9999 NCD 06/04 Q1020 EDDK 090150Z 12006KT CAVOK 12/06 Q1008 NOSIG EDDP 090150Z 18010KT CAVOK 11/04 Q1012 NOSIG LOWL 090150Z AUTO VRB02KT 9999 NCD 06/03 Q1017 LSZA 090150Z AUTO 35001KT CAVOK 09/07 Q1020 LIML 090150Z 09004KT CAVOK 13/08 Q1019 NOSIG LFML 090200Z AUTO 08010KT CAVOK 16/10 Q1015 NOSIG LFMT 090200Z AUTO 12015KT CAVOK 16/14 Q1014 TEMPO BKN014 EDLN 090150Z AUTO 15004KT 9999 // NCD 11/08 Q1007 EDDM 090150Z VRB02KT CAVOK 04/04 Q1015 NOSIG EDDG 090150Z 16006KT CAVOK 11/07 Q1007 NOSIG ETSN 090120Z 00000KT 9999 BKN280 06/04 Q1014 BLU+ ETHN 090120Z 15009KT 9999 BKN340 10/04 Q1012 BLU+ LFMN 090200Z 32004KT CAVOK 15/10 Q1018 NOSIG EDDN 090150Z 11007KT CAVOK 07/03 Q1013 EDMO 090150Z AUTO 14003KT 9999 // NCD 09/03 Q1014 EDLP 090150Z 17010KT CAVOK 12/05 Q1009 LIPR 090150Z AUTO 20003KT 9999 NCD 09/08 Q1020 EDDR 090150Z 06003KT CAVOK 10/07 Q1010 LOWS 090150Z AUTO 15011KT 9999 NCD 10/03 Q1016 LSGS 090150Z AUTO VRB01KT CAVOK 09/04 Q1016 EDDS 090150Z VRB01KT CAVOK 07/04 Q1012 LFTH 090200Z AUTO 02003KT CAVOK 11/09 Q1017 NOSIG LIMF 090150Z 34003KT 9999 SCT060 12/08 Q1019 LIPZ 090150Z 06005KT CAVOK 11/05 Q1020 NOSIG LIPX 090120Z 34003KT CAVOK 11/07 Q1020 EDXW 090150Z AUTO 20016KT 9999 // OVC020/// 10/09 Q1003 LOWW 090150Z 13010KT CAVOK 08/04 Q1018 NOSIG LSZH 090150Z AUTO 30004KT CAVOK 06/05 Q1013 NOSIG

METAR Messwerte

Klicken Sie auf einen Ort, um die 36h-Historie abzurufen

Ort
m ü. NN
Zeit Temperatur Taupunkt Rel.
Luftfeuchte
Luftdruck:
Altimeter
NN
Station
Wind in Beaufort
(Knoten)
Sichtweite
(Meter)
Wolken
(Meter über Grund)
Wettererscheinung
Ansbach
467
So 09.05. 02:569787 %1014
1015
959
SSO 2 (5)>= 10000  
Augsburg
463
So 09.05. 03:507481 %1014
1016
960
SO 2 (5)>= 10000  
Bad Windsheim / Illesheim
325
So 09.05. 02:569471 %1014
1015
976
Windstill>= 10000  
Bern/Belp
505
So 09.05. 03:506593 %1014
1016
955
OSO 2 (5)
O - SSO
>= 10000Nicht signifikant 
Bozen
241
Sa 08.05. 22:5015448 %1019
1019
990
Uml 2 (3)>= 10000Nicht signifikant 
Bremen
5
So 09.05. 03:5012771 %1006
1006
1005
SO 2 (5)>= 10000Nicht signifikant 
Cannes
9
So 09.05. 04:00121088 %1018
1018
1017
N 2 (4)
NNW - NO
>= 10000Nicht signifikant 
Dortmund/Wickede
127
So 09.05. 03:5012771 %1008
1008
993
S 3 (7)>= 10000  
Dresden-Klotzsche
226
So 09.05. 03:5012044 %1013
1013
986
SSO 3 (9)>= 10000Nicht signifikant 
Düsseldorf
44
So 09.05. 03:5013872 %1007
1007
1002
SSO 4 (14)>= 10000Nicht signifikant 
Erfurt-Bindersleben
323
So 09.05. 03:5010362 %1011
1012
973
S 3 (7)>= 10000Nicht signifikant 
Florenz
38
So 09.05. 03:50121088 %1019
1019
1014
Uml 1 (1)>= 10000  
Frankfurt
113
So 09.05. 03:506487 %1010
1010
997
Uml 1 (1)>= 10000Nicht signifikant 
Friedrichshafen
424
So 09.05. 03:505493 %1013
1015
963
Uml 1 (1)>= 10000  
Fritzlar
181
So 09.05. 03:2011358 %1010
1010
989
SSW 3 (8)>= 10000  
Genua
3
So 09.05. 03:50151072 %1018
1018
1018
Uml 1 (1)>= 10000Nicht signifikant 
Grafenwöhr
415
So 09.05. 02:563187 %1014
1016
965
Windstill>= 10000  
Graz-Thalerhof
347
So 09.05. 03:505387 %1019
1021
978
Uml 1 (1)>= 10000  
Hamburg-Fuhlsbüttel
16
So 09.05. 03:5010782 %1007
1007
1005
SSO 3 (9)>= 10000Stark bewölkt (1200) 
Hannover
54
So 09.05. 03:5012458 %1008
1008
1002
SSW 2 (6)
SSO - SW
>= 10000Nicht signifikant 
Hohenfels
442
So 09.05. 02:564181 %1015
1017
963
Windstill>= 10000  
Ingolstadt
370
So 09.05. 03:207481 %1014
1015
970
O 2 (4)>= 10000  
Innsbruck
581
So 09.05. 03:508371 %1018
1020
950
SSW 2 (4)
S - WSW
>= 10000Nicht signifikant 
Kiel
31
So 09.05. 03:509787 %1005
1005
1001
SSW 3 (10)>= 10000Bedeckt (2600)
Wolkig (1800)
Leicht bewölkt (1600)
 
Klagenfurt
441
So 09.05. 03:506487 %1020
1022
968
WNW 2 (4)>= 10000  
Köln/Bonn
99
So 09.05. 03:5012667 %1008
1008
996
OSO 2 (6)>= 10000Nicht signifikant 
Leipzig-Schkeuditz
149
So 09.05. 03:5011462 %1012
1012
994
S 3 (10)>= 10000Nicht signifikant 
Linz/Hörsching
313
So 09.05. 03:506381 %1017
1018
980
Uml 1 (2)>= 10000  
Lugano
276
So 09.05. 03:509787 %1020
1021
987
N 1 (1)>= 10000Nicht signifikant 
Mailand
103
So 09.05. 03:5013872 %1019
1019
1007
O 2 (4)>= 10000Nicht signifikant 
Marseille/Marignane
36
So 09.05. 04:00161068 %1015
1015
1011
O 3 (10)>= 10000Nicht signifikant 
Montpellier
6
So 09.05. 04:00161488 %1014
1014
1013
OSO 4 (15)>= 10000Nicht signifikant 
Mönchengladbach
38
So 09.05. 03:5011882 %1007
1007
1002
SSO 2 (4)>= 10000  
München
447
So 09.05. 03:5044100 %1015
1017
962
Uml 1 (2)>= 10000Nicht signifikant 
Münster/Osnabrück
52
So 09.05. 03:5011776 %1007
1007
1001
SSO 2 (6)>= 10000Nicht signifikant 
Neuburg/Donau
387
So 09.05. 03:206487 %1014
1016
968
Windstill>= 10000Stark bewölkt (8500) 
Niederstetten
473
So 09.05. 03:2010466 %1012
1013
957
SSO 3 (9)>= 10000Stark bewölkt (10000) 
Nizza
10
So 09.05. 04:00151072 %1018
1018
1017
NW 2 (4)>= 10000Nicht signifikant 
Nürnberg
312
So 09.05. 03:507376 %1013
1014
976
OSO 3 (7)>= 10000Nicht signifikant 
Oberpfaffenhofen
600
So 09.05. 03:509366 %1014
1016
944
SO 2 (3)>= 10000  
Paderborn/Lippstadt
213
So 09.05. 03:5012562 %1009
1009
984
S 3 (10)>= 10000Nicht signifikant 
Rimini
13
So 09.05. 03:509893 %1020
1020
1018
SSW 2 (3)>= 10000  
Saarbrücken/Ensheim
320
So 09.05. 03:5010782 %1010
1011
972
ONO 2 (3)>= 10000Nicht signifikant 
Salzburg
450
So 09.05. 03:5010362 %1016
1017
963
SSO 4 (11)>= 10000  
Sion
481
So 09.05. 03:509471 %1016
1017
959
Uml 1 (1)>= 10000Nicht signifikant 
Stuttgart
419
So 09.05. 03:507481 %1012
1013
963
Uml 1 (1)>= 10000Nicht signifikant 
Toulon
4
So 09.05. 04:0011987 %1017
1017
1017
NNO 2 (3)>= 10000Nicht signifikant 
Turin
287
So 09.05. 03:5012876 %1019
1019
985
NNW 2 (3)>= 10000Wolkig (1800) 
Venedig
6
So 09.05. 03:5011566 %1020
1020
1019
ONO 2 (5)>= 10000Nicht signifikant 
Verona/Villafranca
68
So 09.05. 03:2011776 %1020
1020
1012
NNW 2 (3)>= 10000Nicht signifikant 
Westerland/Sylt
20
So 09.05. 03:5010993 %1003
1003
1001
SSW 5 (16)>= 10000Bedeckt (610) 
Wien/Schwechat
190
So 09.05. 03:508476 %1018
1019
995
SO 3 (10)>= 10000Nicht signifikant 
Zürich-Kloten
432
So 09.05. 03:506593 %1013
1015
962
WNW 2 (4)>= 10000Nicht signifikant 

Altimeter: Einstellung am Altimeter (Höhenmesser), die Höhe 0 muss auf diesen Luftdruckwert zeigen, damit das Gerät die Stationshöhe richtig anzeigt.

NN: Luftdruck reduziert auf "Normal Null", auf Meereshöhe, dieser von der Temperatur abhängige Wert wird bisweilen unkorrekt einfach als "Luftdruck" bezeichnet. Eigentlich nur eine fiktive Größe, die es erlaubt, Stationen auf unterschiedlichen Höhen miteinander zu vergleichen.

Station: Realer Luftdruck an der Station.